Terminal Aerodrome Forecast
Issued by NWS Jackson, KY

Home | Current Version | Previous Version | Text Only | Print | Product List | Glossary On
Versions: 1 2 3 4 5 6 7 8 9 10 11 12 13 14 15 16 17
000
FTUS43 KJKL 202300
TAFJKL
TAF
KJKL 202321Z 2100/2124 00000KT P6SM FEW050 FEW250
     FM211500 VRB03KT P6SM VCSH BKN030
     FM211600 VRB03KT 6SM -SHRA BKN025=

USA.gov is the U.S. government's official web portal to all federal, state and local government web resources and services.